createdAt,value
2017-10-21T00:00:04.017Z,0
2017-10-21T00:01:04.066Z,0
2017-10-21T00:02:04.136Z,0
2017-10-21T00:03:04.137Z,0
2017-10-21T00:04:04.069Z,0
2017-10-21T00:05:04.146Z,0
2017-10-21T00:06:04.095Z,0
2017-10-21T00:07:04.142Z,0
2017-10-21T00:08:04.087Z,0
2017-10-21T00:09:04.041Z,0
2017-10-21T00:10:04.094Z,0
2017-10-21T00:11:04.033Z,0
2017-10-21T00:12:04.124Z,0
2017-10-21T00:13:04.068Z,0
2017-10-21T00:14:04.173Z,0
2017-10-21T00:15:04.033Z,0
2017-10-21T00:16:04.006Z,0
2017-10-21T00:17:04.110Z,0
2017-10-21T00:18:04.004Z,0
2017-10-21T00:19:04.031Z,0
2017-10-21T00:20:04.073Z,0
2017-10-21T00:21:04.013Z,0
2017-10-21T00:22:04.084Z,0
2017-10-21T00:23:04.134Z,0
2017-10-21T00:24:04.097Z,0
2017-10-21T00:25:04.042Z,0
2017-10-21T00:26:04.138Z,0
2017-10-21T00:27:04.015Z,0
2017-10-21T00:28:04.014Z,0
2017-10-21T00:29:04.082Z,0
2017-10-21T00:30:04.057Z,0
2017-10-21T00:31:04.104Z,0
2017-10-21T00:32:04.057Z,0
2017-10-21T00:33:04.124Z,0
2017-10-21T00:34:04.085Z,0
2017-10-21T00:35:04.089Z,0
2017-10-21T00:36:04.093Z,0
2017-10-21T00:37:04.158Z,0
2017-10-21T00:38:04.091Z,0
2017-10-21T00:39:04.159Z,0
2017-10-21T00:40:04.089Z,0
2017-10-21T00:41:04.091Z,0
2017-10-21T00:42:04.159Z,0
2017-10-21T00:43:04.091Z,0
2017-10-21T00:44:04.161Z,0
2017-10-21T00:45:04.087Z,0
2017-10-21T00:46:04.185Z,0
2017-10-21T00:47:04.143Z,0
2017-10-21T00:48:04.095Z,0
2017-10-21T00:49:04.167Z,0
2017-10-21T00:50:04.094Z,0
2017-10-21T00:51:04.165Z,0
2017-10-21T00:52:04.096Z,0
2017-10-21T00:53:04.167Z,0
2017-10-21T00:54:04.096Z,0
2017-10-21T00:55:04.168Z,0
2017-10-21T00:56:04.103Z,0
2017-10-21T00:57:04.171Z,0
2017-10-21T00:58:04.099Z,0
2017-10-21T00:59:04.172Z,0
2017-10-21T01:00:04.108Z,0
2017-10-21T01:01:04.180Z,0
2017-10-21T01:02:04.105Z,0
2017-10-21T01:03:04.173Z,0
2017-10-21T01:04:04.126Z,0
2017-10-21T01:05:04.175Z,0
2017-10-21T01:06:04.108Z,0
2017-10-21T01:07:04.177Z,0
2017-10-21T01:08:04.108Z,0
2017-10-21T01:09:04.177Z,0
2017-10-21T01:10:04.178Z,0
2017-10-21T01:11:04.111Z,0
2017-10-21T01:12:04.176Z,0
2017-10-21T01:13:04.113Z,0
2017-10-21T01:14:04.060Z,0
2017-10-21T01:15:04.111Z,0
2017-10-21T01:16:04.181Z,0
2017-10-21T01:17:04.118Z,0
2017-10-21T01:18:04.118Z,0
2017-10-21T01:19:04.212Z,0
2017-10-21T01:20:04.184Z,0
2017-10-21T01:21:04.138Z,0
2017-10-21T01:22:04.117Z,0
2017-10-21T01:23:04.187Z,0
2017-10-21T01:24:04.120Z,0
2017-10-21T01:25:04.121Z,0
2017-10-21T01:26:04.209Z,0
2017-10-21T01:27:04.124Z,0
2017-10-21T01:28:04.158Z,0
2017-10-21T01:29:04.213Z,0
2017-10-21T01:30:04.191Z,0
2017-10-21T01:31:04.122Z,0
2017-10-21T01:32:04.190Z,0
2017-10-21T01:33:04.137Z,0
2017-10-21T01:34:04.193Z,0
2017-10-21T01:35:04.123Z,0
2017-10-21T01:36:04.081Z,0
2017-10-21T01:37:04.120Z,0
2017-10-21T01:38:04.197Z,0
2017-10-21T01:39:04.127Z,0
2017-10-21T01:40:04.195Z,0
2017-10-21T01:41:04.195Z,0
2017-10-21T01:42:04.197Z,0
2017-10-21T01:43:04.126Z,0
2017-10-21T01:44:04.199Z,0
2017-10-21T01:45:04.129Z,0
2017-10-21T01:46:04.132Z,0
2017-10-21T01:47:04.272Z,0
2017-10-21T01:48:04.200Z,0
2017-10-21T01:49:04.134Z,0
2017-10-21T01:50:04.202Z,0
2017-10-21T01:51:04.207Z,0
2017-10-21T01:52:04.140Z,0
2017-10-21T01:53:04.203Z,0
2017-10-21T01:54:04.142Z,0
2017-10-21T01:55:04.206Z,0
2017-10-21T01:56:04.208Z,0
2017-10-21T01:57:04.205Z,0
2017-10-21T01:58:04.139Z,0
2017-10-21T01:59:04.207Z,0
2017-10-21T02:00:04.140Z,0
2017-10-21T02:01:04.215Z,0
2017-10-21T02:02:04.146Z,0
2017-10-21T02:03:04.212Z,0
2017-10-21T02:04:04.140Z,0
2017-10-21T02:05:04.221Z,0
2017-10-21T02:06:04.217Z,0
2017-10-21T02:07:04.146Z,0
2017-10-21T02:08:04.212Z,0
2017-10-21T02:09:04.143Z,0
2017-10-21T02:10:04.214Z,0
2017-10-21T02:11:04.149Z,0
2017-10-21T02:12:04.149Z,0
2017-10-21T02:13:04.144Z,0
2017-10-21T02:14:04.214Z,0
2017-10-21T02:15:04.148Z,0
2017-10-21T02:16:04.147Z,0
2017-10-21T02:17:04.125Z,0
2017-10-21T02:18:04.121Z,0
2017-10-21T02:19:04.184Z,0
2017-10-21T02:20:04.126Z,0
2017-10-21T02:21:04.231Z,0
2017-10-21T02:22:04.091Z,0
2017-10-21T02:23:04.086Z,0
2017-10-21T02:24:04.215Z,0
2017-10-21T02:25:04.194Z,0
2017-10-21T02:26:04.225Z,0
2017-10-21T02:27:04.160Z,0
2017-10-21T02:28:04.227Z,0
2017-10-21T02:29:04.159Z,0
2017-10-21T02:30:04.228Z,0
2017-10-21T02:31:04.159Z,0
2017-10-21T02:32:04.231Z,0
2017-10-21T02:33:04.189Z,0
2017-10-21T02:34:04.267Z,0
2017-10-21T02:35:04.230Z,0
2017-10-21T02:36:04.175Z,0
2017-10-21T02:37:04.293Z,0
2017-10-21T02:38:04.232Z,0
2017-10-21T02:39:04.164Z,0
2017-10-21T02:40:04.233Z,0
2017-10-21T02:41:04.169Z,0
2017-10-21T02:42:04.238Z,0
2017-10-21T02:43:04.235Z,0
2017-10-21T02:44:04.164Z,0
2017-10-21T02:45:04.235Z,0
2017-10-21T02:46:04.234Z,0
2017-10-21T02:47:04.194Z,0
2017-10-21T02:48:04.238Z,0
2017-10-21T02:49:04.167Z,0
2017-10-21T02:50:04.240Z,0
2017-10-21T02:51:04.168Z,0
2017-10-21T02:52:04.238Z,0
2017-10-21T02:53:04.172Z,0
2017-10-21T02:54:04.242Z,0
2017-10-21T02:55:04.172Z,0
2017-10-21T02:56:04.172Z,0
2017-10-21T02:57:04.245Z,0
2017-10-21T02:58:04.176Z,0
2017-10-21T02:59:04.254Z,0
2017-10-21T03:00:04.171Z,0
2017-10-21T03:01:04.173Z,0
2017-10-21T03:02:04.245Z,0
2017-10-21T03:03:04.177Z,0
2017-10-21T03:04:04.249Z,0
2017-10-21T03:05:04.221Z,0
2017-10-21T03:06:04.248Z,0
2017-10-21T03:07:04.177Z,0
2017-10-21T03:08:04.250Z,0
2017-10-21T03:09:04.248Z,0
2017-10-21T03:10:04.180Z,0
2017-10-21T03:11:04.252Z,0
2017-10-21T03:12:04.180Z,0
2017-10-21T03:13:04.253Z,0
2017-10-21T03:14:04.254Z,0
2017-10-21T03:15:04.253Z,0
2017-10-21T03:16:04.282Z,0
2017-10-21T03:17:04.254Z,0
2017-10-21T03:18:04.186Z,0
2017-10-21T03:19:04.256Z,0
2017-10-21T03:20:04.189Z,0
2017-10-21T03:21:04.262Z,0
2017-10-21T03:22:04.258Z,0
2017-10-21T03:23:04.192Z,0
2017-10-21T03:24:04.257Z,0
2017-10-21T03:25:04.260Z,0
2017-10-21T03:26:04.191Z,0
2017-10-21T03:27:04.209Z,0
2017-10-21T03:28:04.261Z,0
2017-10-21T03:29:04.265Z,0
2017-10-21T03:30:04.264Z,0
2017-10-21T03:31:04.195Z,0
2017-10-21T03:32:04.197Z,0
2017-10-21T03:33:04.193Z,0
2017-10-21T03:34:04.265Z,0
2017-10-21T03:35:04.266Z,0
2017-10-21T03:36:04.197Z,0
2017-10-21T03:37:04.267Z,0
2017-10-21T03:38:04.222Z,0
2017-10-21T03:39:04.268Z,0
2017-10-21T03:40:04.199Z,0
2017-10-21T03:41:04.269Z,0
2017-10-21T03:42:04.272Z,0
2017-10-21T03:43:04.270Z,0
2017-10-21T03:44:04.202Z,0
2017-10-21T03:45:04.271Z,0
2017-10-21T03:46:04.202Z,0
2017-10-21T03:47:04.203Z,0
2017-10-21T03:48:04.273Z,0
2017-10-21T03:49:04.277Z,0
2017-10-21T03:50:04.202Z,0
2017-10-21T03:51:04.206Z,0
2017-10-21T03:52:04.181Z,0
2017-10-21T03:53:04.208Z,0
2017-10-21T03:54:04.207Z,0
2017-10-21T03:55:04.311Z,0
2017-10-21T03:56:04.212Z,0
2017-10-21T03:57:04.211Z,0
2017-10-21T03:58:04.176Z,0
2017-10-21T03:59:04.224Z,0
2017-10-21T04:00:04.235Z,0
2017-10-21T04:01:04.239Z,0
2017-10-21T04:02:04.212Z,0
2017-10-21T04:03:04.139Z,0
2017-10-21T04:04:04.214Z,0
2017-10-21T04:05:04.155Z,0
2017-10-21T04:06:04.155Z,0
2017-10-21T04:07:04.256Z,0
2017-10-21T04:08:04.215Z,0
2017-10-21T04:09:04.252Z,0
2017-10-21T04:10:04.216Z,0
2017-10-21T04:11:04.275Z,0
2017-10-21T04:12:04.280Z,0
2017-10-21T04:13:04.305Z,0
2017-10-21T04:14:04.189Z,0
2017-10-21T04:15:04.258Z,0
2017-10-21T04:16:04.243Z,0
2017-10-21T04:17:04.291Z,0
2017-10-21T04:18:04.223Z,0
2017-10-21T04:19:04.291Z,0
2017-10-21T04:20:04.221Z,0
2017-10-21T04:21:04.292Z,0
2017-10-21T04:22:04.226Z,0
2017-10-21T04:23:04.293Z,0
2017-10-21T04:24:04.293Z,0
2017-10-21T04:25:04.294Z,0
2017-10-21T04:26:04.230Z,0
2017-10-21T04:27:04.231Z,0
2017-10-21T04:28:04.233Z,0
2017-10-21T04:29:04.298Z,0
2017-10-21T04:30:04.301Z,0
2017-10-21T04:31:04.182Z,0
2017-10-21T04:32:04.231Z,0
2017-10-21T04:33:04.301Z,0
2017-10-21T04:34:04.303Z,0
2017-10-21T04:35:04.236Z,0
2017-10-21T04:36:04.405Z,0
2017-10-21T04:37:04.307Z,0
2017-10-21T04:38:04.236Z,0
2017-10-21T04:39:04.304Z,0
2017-10-21T04:40:04.234Z,0
2017-10-21T04:41:04.229Z,0
2017-10-21T04:42:04.305Z,0
2017-10-21T04:43:04.305Z,0
2017-10-21T04:44:04.238Z,0
2017-10-21T04:45:04.308Z,0
2017-10-21T04:46:04.239Z,0
2017-10-21T04:47:04.236Z,0
2017-10-21T04:48:04.282Z,0
2017-10-21T04:49:04.303Z,0
2017-10-21T04:50:04.305Z,0
2017-10-21T04:51:04.219Z,0
2017-10-21T04:52:04.295Z,0
2017-10-21T04:53:04.325Z,0
2017-10-21T04:54:04.216Z,0
2017-10-21T04:55:04.303Z,0
2017-10-21T04:56:04.249Z,0
2017-10-21T04:57:04.314Z,0
2017-10-21T04:58:04.250Z,0
2017-10-21T04:59:04.243Z,0
2017-10-21T05:00:04.247Z,0
2017-10-21T05:01:04.317Z,0
2017-10-21T05:02:04.271Z,0
2017-10-21T05:03:04.320Z,0
2017-10-21T05:04:04.251Z,0
2017-10-21T05:05:04.198Z,0
2017-10-21T05:06:04.248Z,0
2017-10-21T05:07:04.320Z,0
2017-10-21T05:08:04.250Z,0
2017-10-21T05:09:04.252Z,0
2017-10-21T05:10:04.258Z,0
2017-10-21T05:11:04.322Z,0
2017-10-21T05:12:04.408Z,0
2017-10-21T05:13:04.324Z,0
2017-10-21T05:14:04.328Z,0
2017-10-21T05:15:04.326Z,0
2017-10-21T05:16:04.259Z,0
2017-10-21T05:17:04.179Z,0
2017-10-21T05:18:04.182Z,0
2017-10-21T05:19:04.230Z,0
2017-10-21T05:20:04.184Z,0
2017-10-21T05:21:04.229Z,0
2017-10-21T05:22:04.227Z,0
2017-10-21T05:23:04.183Z,0
2017-10-21T05:24:04.227Z,0
2017-10-21T05:25:04.281Z,0
2017-10-21T05:26:04.194Z,0
2017-10-21T05:27:04.334Z,0
2017-10-21T05:28:04.284Z,0
2017-10-21T05:29:04.334Z,0
2017-10-21T05:30:04.334Z,0
2017-10-21T05:31:04.347Z,0
2017-10-21T05:32:04.270Z,0
2017-10-21T05:33:04.284Z,0
2017-10-21T05:34:04.267Z,0
2017-10-21T05:35:04.223Z,0
2017-10-21T05:36:04.273Z,0
2017-10-21T05:37:04.239Z,0
2017-10-21T05:38:04.280Z,0
2017-10-21T05:39:04.282Z,0
2017-10-21T05:40:04.263Z,0
2017-10-21T05:41:04.290Z,0
2017-10-21T05:42:04.288Z,0
2017-10-21T05:43:04.192Z,0
2017-10-21T05:44:04.242Z,0
2017-10-21T05:45:04.286Z,0
2017-10-21T05:46:04.195Z,0
2017-10-21T05:47:04.276Z,0
2017-10-21T05:48:04.275Z,0
2017-10-21T05:49:04.345Z,0
2017-10-21T05:50:04.279Z,0
2017-10-21T05:51:04.381Z,0
2017-10-21T05:52:04.348Z,0
2017-10-21T05:53:04.276Z,0
2017-10-21T05:54:04.283Z,0
2017-10-21T05:55:04.350Z,0
2017-10-21T05:56:04.286Z,0
2017-10-21T05:57:04.227Z,0
2017-10-21T05:58:04.249Z,0
2017-10-21T05:59:04.286Z,0
2017-10-21T06:00:04.241Z,0
2017-10-21T06:01:04.232Z,0
2017-10-21T06:02:04.305Z,0
2017-10-21T06:03:04.239Z,0
2017-10-21T06:04:04.223Z,0
2017-10-21T06:05:04.220Z,0
2017-10-21T06:06:04.266Z,0
2017-10-21T06:07:04.259Z,0
2017-10-21T06:08:04.328Z,0
2017-10-21T06:09:04.222Z,0
2017-10-21T06:10:04.242Z,0
2017-10-21T06:11:04.347Z,0
2017-10-21T06:12:04.347Z,0
2017-10-21T06:13:04.313Z,0
2017-10-21T06:14:04.269Z,0
2017-10-21T06:15:04.269Z,0
2017-10-21T06:16:04.262Z,0
2017-10-21T06:17:04.343Z,0
2017-10-21T06:18:04.226Z,0
2017-10-21T06:19:04.330Z,0
2017-10-21T06:20:04.292Z,0
2017-10-21T06:21:04.310Z,0
2017-10-21T06:22:04.293Z,0
2017-10-21T06:23:04.325Z,0
2017-10-21T06:24:04.295Z,0
2017-10-21T06:25:04.347Z,0
2017-10-21T06:26:04.327Z,0
2017-10-21T06:27:04.367Z,0
2017-10-21T06:28:04.298Z,0
2017-10-21T06:29:04.371Z,0
2017-10-21T06:30:04.370Z,0
2017-10-21T06:31:04.298Z,0
2017-10-21T06:32:04.371Z,0
2017-10-21T06:33:04.301Z,0
2017-10-21T06:34:04.372Z,0
2017-10-21T06:35:04.257Z,0
2017-10-21T06:36:04.302Z,0
2017-10-21T06:37:04.376Z,0
2017-10-21T06:38:04.304Z,0
2017-10-21T06:39:04.298Z,0
2017-10-21T06:40:04.378Z,0
2017-10-21T06:41:04.305Z,0
2017-10-21T06:42:04.375Z,0
2017-10-21T06:43:04.326Z,0
2017-10-21T06:44:04.307Z,19
2017-10-21T06:45:04.304Z,25
2017-10-21T06:46:04.381Z,28
2017-10-21T06:47:04.290Z,28
2017-10-21T06:48:04.402Z,35
2017-10-21T06:49:04.302Z,40
2017-10-21T06:50:04.380Z,42
2017-10-21T06:51:04.304Z,44
2017-10-21T06:52:04.383Z,44
2017-10-21T06:53:04.308Z,43
2017-10-21T06:54:04.385Z,41
2017-10-21T06:55:04.317Z,39
2017-10-21T06:56:04.386Z,36
2017-10-21T06:57:04.293Z,32
2017-10-21T06:58:04.254Z,33
2017-10-21T06:59:04.343Z,31
2017-10-21T07:00:04.276Z,28
2017-10-21T07:01:04.244Z,32
2017-10-21T07:02:04.348Z,35
2017-10-21T07:03:04.330Z,40
2017-10-21T07:04:04.345Z,42
2017-10-21T07:05:04.341Z,44
2017-10-21T07:06:04.292Z,44
2017-10-21T07:07:04.276Z,42
2017-10-21T07:08:04.400Z,37
2017-10-21T07:09:04.329Z,30
2017-10-21T07:10:04.392Z,30
2017-10-21T07:11:04.324Z,30
2017-10-21T07:12:04.394Z,32
2017-10-21T07:13:04.325Z,31
2017-10-21T07:14:04.325Z,39
2017-10-21T07:15:04.394Z,43
2017-10-21T07:16:04.323Z,48
2017-10-21T07:17:04.398Z,50
2017-10-21T07:18:04.325Z,55
2017-10-21T07:19:04.407Z,58
2017-10-21T07:20:04.325Z,60
2017-10-21T07:21:04.403Z,58
2017-10-21T07:22:04.335Z,56
2017-10-21T07:23:04.403Z,55
2017-10-21T07:24:04.325Z,55
2017-10-21T07:25:04.324Z,58
2017-10-21T07:26:04.403Z,64
2017-10-21T07:27:04.352Z,71
2017-10-21T07:28:04.405Z,78
2017-10-21T07:29:04.405Z,81
2017-10-21T07:30:04.330Z,82
2017-10-21T07:31:04.333Z,79
2017-10-21T07:32:04.342Z,74
2017-10-21T07:33:04.346Z,70
2017-10-21T07:34:04.412Z,62
2017-10-21T07:35:04.341Z,59
2017-10-21T07:36:04.288Z,61
2017-10-21T07:37:04.308Z,61
2017-10-21T07:38:04.298Z,63
2017-10-21T07:39:04.300Z,65
2017-10-21T07:40:04.417Z,77
2017-10-21T07:41:04.410Z,210
2017-10-21T07:42:04.414Z,195
2017-10-21T07:43:04.338Z,249
2017-10-21T07:44:04.278Z,261
2017-10-21T07:45:04.314Z,272
2017-10-21T07:46:04.408Z,289
2017-10-21T07:47:04.381Z,293
2017-10-21T07:48:04.278Z,302
2017-10-21T07:49:04.378Z,308
2017-10-21T07:50:04.367Z,220
2017-10-21T07:51:04.375Z,229
2017-10-21T07:52:04.304Z,267
2017-10-21T07:53:04.360Z,300
2017-10-21T07:54:04.307Z,260
2017-10-21T07:55:04.380Z,276
2017-10-21T07:56:04.386Z,261
2017-10-21T07:57:04.386Z,247
2017-10-21T07:58:04.345Z,243
2017-10-21T07:59:04.310Z,247
2017-10-21T08:00:04.285Z,251
2017-10-21T08:01:04.281Z,261
2017-10-21T08:02:04.386Z,279
2017-10-21T08:03:04.315Z,298
2017-10-21T08:04:04.312Z,308
2017-10-21T08:05:04.310Z,315
2017-10-21T08:06:04.372Z,115
2017-10-21T08:07:04.338Z,115
2017-10-21T08:08:04.313Z,340
2017-10-21T08:09:04.406Z,262
2017-10-21T08:10:04.356Z,136
2017-10-21T08:11:04.315Z,176
2017-10-21T08:12:04.312Z,190
2017-10-21T08:13:04.376Z,178
2017-10-21T08:14:04.290Z,161
2017-10-21T08:15:04.366Z,158
2017-10-21T08:16:04.301Z,169
2017-10-21T08:17:04.361Z,189
2017-10-21T08:18:04.435Z,198
2017-10-21T08:19:04.437Z,211
2017-10-21T08:20:04.367Z,231
2017-10-21T08:21:04.437Z,248
2017-10-21T08:22:04.370Z,253
2017-10-21T08:23:04.368Z,241
2017-10-21T08:24:04.438Z,208
2017-10-21T08:25:04.439Z,182
2017-10-21T08:26:04.369Z,173
2017-10-21T08:27:04.437Z,189
2017-10-21T08:28:04.424Z,434
2017-10-21T08:29:04.381Z,383
2017-10-21T08:30:04.353Z,434
2017-10-21T08:31:04.437Z,291
2017-10-21T08:32:04.322Z,161
2017-10-21T08:33:04.319Z,314
2017-10-21T08:34:04.409Z,315
2017-10-21T08:35:04.390Z,162
2017-10-21T08:36:04.342Z,364
2017-10-21T08:37:04.291Z,364
2017-10-21T08:38:04.298Z,360
2017-10-21T08:39:04.295Z,361
2017-10-21T08:40:04.340Z,363
2017-10-21T08:41:04.305Z,364
2017-10-21T08:42:04.346Z,367
2017-10-21T08:43:04.300Z,361
2017-10-21T08:44:04.332Z,381
2017-10-21T08:45:04.356Z,396
2017-10-21T08:46:04.311Z,296
2017-10-21T08:47:04.380Z,428
2017-10-21T08:48:04.453Z,355
2017-10-21T08:49:04.380Z,258
2017-10-21T08:50:04.455Z,398
2017-10-21T08:51:04.457Z,261
2017-10-21T08:52:04.384Z,255
2017-10-21T08:53:04.455Z,340
2017-10-21T08:54:04.383Z,410
2017-10-21T08:55:04.459Z,394
2017-10-21T08:56:04.384Z,398
2017-10-21T08:57:04.465Z,402
2017-10-21T08:58:04.390Z,408
2017-10-21T08:59:04.461Z,400
2017-10-21T09:00:04.386Z,379
2017-10-21T09:01:04.398Z,344
2017-10-21T09:02:04.460Z,328
2017-10-21T09:03:04.389Z,334
2017-10-21T09:04:04.462Z,433
2017-10-21T09:05:04.465Z,391
2017-10-21T09:06:04.395Z,423
2017-10-21T09:07:04.467Z,429
2017-10-21T09:08:04.438Z,424
2017-10-21T09:09:04.466Z,436
2017-10-21T09:10:04.394Z,451
2017-10-21T09:11:04.466Z,472
2017-10-21T09:12:04.391Z,491
2017-10-21T09:13:04.469Z,403
2017-10-21T09:14:04.394Z,142
2017-10-21T09:15:04.467Z,128
2017-10-21T09:16:04.398Z,129
2017-10-21T09:17:04.354Z,210
2017-10-21T09:18:04.430Z,456
2017-10-21T09:19:04.336Z,493
2017-10-21T09:20:04.362Z,395
2017-10-21T09:21:04.400Z,260
2017-10-21T09:22:04.340Z,204
2017-10-21T09:23:04.416Z,475
2017-10-21T09:24:04.441Z,338
2017-10-21T09:25:04.381Z,246
2017-10-21T09:26:04.361Z,334
2017-10-21T09:27:04.438Z,258
2017-10-21T09:28:04.438Z,248
2017-10-21T09:29:04.386Z,214
2017-10-21T09:30:04.476Z,181
2017-10-21T09:31:04.464Z,158
2017-10-21T09:32:04.473Z,158
2017-10-21T09:33:04.441Z,169
2017-10-21T09:34:04.450Z,178
2017-10-21T09:35:04.383Z,174
2017-10-21T09:36:04.451Z,152
2017-10-21T09:37:04.454Z,122
2017-10-21T09:38:04.483Z,100
2017-10-21T09:39:04.485Z,90
2017-10-21T09:40:04.412Z,86
2017-10-21T09:41:04.485Z,87
2017-10-21T09:42:04.410Z,94
2017-10-21T09:43:04.484Z,104
2017-10-21T09:44:04.444Z,117
2017-10-21T09:45:04.490Z,119
2017-10-21T09:46:04.485Z,125
2017-10-21T09:47:04.414Z,121
2017-10-21T09:48:04.387Z,114
2017-10-21T09:49:04.489Z,111
2017-10-21T09:50:04.392Z,111
2017-10-21T09:51:04.489Z,106
2017-10-21T09:52:04.452Z,100
2017-10-21T09:53:04.480Z,91
2017-10-21T09:54:04.491Z,84
2017-10-21T09:55:04.475Z,86
2017-10-21T09:56:04.456Z,94
2017-10-21T09:57:04.481Z,101
2017-10-21T09:58:04.421Z,104
2017-10-21T09:59:04.493Z,100
2017-10-21T10:00:04.424Z,95
2017-10-21T10:01:04.492Z,92
2017-10-21T10:02:04.493Z,90
2017-10-21T10:03:04.440Z,89
2017-10-21T10:04:04.497Z,90
2017-10-21T10:05:04.422Z,93
2017-10-21T10:06:04.424Z,100
2017-10-21T10:07:04.491Z,105
2017-10-21T10:08:04.434Z,113
2017-10-21T10:09:04.501Z,111
2017-10-21T10:10:04.427Z,118
2017-10-21T10:11:04.428Z,122
2017-10-21T10:12:04.433Z,132
2017-10-21T10:13:04.506Z,146
2017-10-21T10:14:04.437Z,161
2017-10-21T10:15:04.507Z,171
2017-10-21T10:16:04.505Z,176
2017-10-21T10:17:04.440Z,176
2017-10-21T10:18:04.505Z,180
2017-10-21T10:19:04.457Z,188
2017-10-21T10:20:04.509Z,206
2017-10-21T10:21:04.471Z,232
2017-10-21T10:22:04.437Z,266
2017-10-21T10:23:04.437Z,297
2017-10-21T10:24:04.509Z,294
2017-10-21T10:25:04.438Z,285
2017-10-21T10:26:04.513Z,280
2017-10-21T10:27:04.514Z,274
2017-10-21T10:28:04.436Z,263
2017-10-21T10:29:04.513Z,249
2017-10-21T10:30:04.439Z,236
2017-10-21T10:31:04.427Z,223
2017-10-21T10:32:04.448Z,206
2017-10-21T10:33:04.514Z,184
2017-10-21T10:34:04.444Z,176
2017-10-21T10:35:04.519Z,170
2017-10-21T10:36:04.450Z,156
2017-10-21T10:37:04.450Z,140
2017-10-21T10:38:04.599Z,137
2017-10-21T10:39:04.520Z,138
2017-10-21T10:40:04.450Z,139
2017-10-21T10:41:04.523Z,139
2017-10-21T10:42:04.452Z,139
2017-10-21T10:43:04.523Z,136
2017-10-21T10:44:04.447Z,134
2017-10-21T10:45:04.524Z,138
2017-10-21T10:46:04.518Z,147
2017-10-21T10:47:04.525Z,156
2017-10-21T10:48:04.512Z,169
2017-10-21T10:49:04.519Z,179
2017-10-21T10:50:04.427Z,173
2017-10-21T10:51:04.486Z,152
2017-10-21T10:52:04.489Z,128
2017-10-21T10:53:04.422Z,108
2017-10-21T10:54:04.487Z,96
2017-10-21T10:55:04.515Z,89
2017-10-21T10:56:04.472Z,80
2017-10-21T10:57:04.429Z,68
2017-10-21T10:58:04.538Z,56
2017-10-21T10:59:04.479Z,54
2017-10-21T11:00:04.533Z,55
2017-10-21T11:01:04.465Z,48
2017-10-21T11:02:04.536Z,39
2017-10-21T11:03:04.464Z,27
2017-10-21T11:04:04.535Z,24
2017-10-21T11:05:04.466Z,21
2017-10-21T11:06:04.567Z,22
2017-10-21T11:07:04.466Z,21
2017-10-21T11:08:04.469Z,20
2017-10-21T11:09:04.539Z,22
2017-10-21T11:10:04.466Z,25
2017-10-21T11:11:04.541Z,26
2017-10-21T11:12:04.471Z,29
2017-10-21T11:13:04.540Z,37
2017-10-21T11:14:04.465Z,42
2017-10-21T11:15:04.543Z,42
2017-10-21T11:16:04.467Z,39
2017-10-21T11:17:04.541Z,40
2017-10-21T11:18:04.475Z,44
2017-10-21T11:19:04.470Z,54
2017-10-21T11:20:04.544Z,71
2017-10-21T11:21:04.472Z,76
2017-10-21T11:22:04.550Z,91
2017-10-21T11:23:04.547Z,114
2017-10-21T11:24:04.474Z,124
2017-10-21T11:25:04.552Z,112
2017-10-21T11:26:04.483Z,99
2017-10-21T11:27:04.550Z,111
2017-10-21T11:28:04.432Z,113
2017-10-21T11:29:04.493Z,106
2017-10-21T11:30:04.442Z,105
2017-10-21T11:31:04.517Z,91
2017-10-21T11:32:04.540Z,79
2017-10-21T11:33:04.478Z,74
2017-10-21T11:34:04.451Z,72
2017-10-21T11:35:04.429Z,67
2017-10-21T11:36:04.517Z,65
2017-10-21T11:37:04.542Z,62
2017-10-21T11:38:04.460Z,58
2017-10-21T11:39:04.463Z,56
2017-10-21T11:40:04.410Z,52
2017-10-21T11:41:04.464Z,51
2017-10-21T11:42:04.519Z,55
2017-10-21T11:43:04.437Z,60
2017-10-21T11:44:04.517Z,67
2017-10-21T11:45:04.453Z,82
2017-10-21T11:46:04.449Z,90
2017-10-21T11:47:04.490Z,97
2017-10-21T11:48:04.498Z,107
2017-10-21T11:49:04.560Z,109
2017-10-21T11:50:04.492Z,103
2017-10-21T11:51:04.566Z,94
2017-10-21T11:52:04.488Z,86
2017-10-21T11:53:04.574Z,78
2017-10-21T11:54:04.490Z,76
2017-10-21T11:55:04.575Z,74
2017-10-21T11:56:04.488Z,67
2017-10-21T11:57:04.577Z,57
2017-10-21T11:58:04.386Z,50
2017-10-21T11:59:04.562Z,49
2017-10-21T12:00:04.384Z,48
2017-10-21T12:01:04.396Z,48
2017-10-21T12:02:04.443Z,44
2017-10-21T12:03:04.503Z,42
2017-10-21T12:04:04.434Z,48
2017-10-21T12:05:04.420Z,60
2017-10-21T12:06:04.538Z,64
2017-10-21T12:07:04.476Z,63
2017-10-21T12:08:04.501Z,55
2017-10-21T12:09:04.574Z,49
2017-10-21T12:10:04.499Z,43
2017-10-21T12:11:04.576Z,41
2017-10-21T12:12:04.502Z,40
2017-10-21T12:13:04.506Z,35
2017-10-21T12:14:04.577Z,35
2017-10-21T12:15:04.506Z,38
2017-10-21T12:16:04.578Z,39
2017-10-21T12:17:04.504Z,42
2017-10-21T12:18:04.579Z,47
2017-10-21T12:19:04.507Z,51
2017-10-21T12:20:04.579Z,57
2017-10-21T12:21:04.580Z,61
2017-10-21T12:22:04.513Z,63
2017-10-21T12:23:04.584Z,59
2017-10-21T12:24:04.511Z,61
2017-10-21T12:25:04.525Z,64
2017-10-21T12:26:04.584Z,63
2017-10-21T12:27:04.587Z,59
2017-10-21T12:28:04.478Z,56
2017-10-21T12:29:04.452Z,51
2017-10-21T12:30:04.534Z,46
2017-10-21T12:31:04.546Z,43
2017-10-21T12:32:04.468Z,46
2017-10-21T12:33:04.461Z,51
2017-10-21T12:34:04.533Z,51
2017-10-21T12:35:04.500Z,46
2017-10-21T12:36:04.499Z,48
2017-10-21T12:37:04.475Z,55
2017-10-21T12:38:04.523Z,61
2017-10-21T12:39:04.594Z,61
2017-10-21T12:40:04.519Z,57
2017-10-21T12:41:04.592Z,53
2017-10-21T12:42:04.595Z,47
2017-10-21T12:43:04.521Z,38
2017-10-21T12:44:04.596Z,36
2017-10-21T12:45:04.520Z,36
2017-10-21T12:46:04.598Z,44
2017-10-21T12:47:04.527Z,43
2017-10-21T12:48:04.597Z,47
2017-10-21T12:49:04.525Z,59
2017-10-21T12:50:04.624Z,71
2017-10-21T12:51:04.527Z,76
2017-10-21T12:52:04.600Z,89
2017-10-21T12:53:04.529Z,93
2017-10-21T12:54:04.601Z,92
2017-10-21T12:55:04.536Z,97
2017-10-21T12:56:04.602Z,85
2017-10-21T12:57:04.548Z,76
2017-10-21T12:58:04.603Z,65
2017-10-21T12:59:04.602Z,61
2017-10-21T13:00:04.527Z,54
2017-10-21T13:01:04.604Z,49
2017-10-21T13:02:04.534Z,51
2017-10-21T13:03:04.606Z,62
2017-10-21T13:04:04.532Z,76
2017-10-21T13:05:04.610Z,90
2017-10-21T13:06:04.535Z,94
2017-10-21T13:07:04.608Z,115
2017-10-21T13:08:04.489Z,121
2017-10-21T13:09:04.574Z,119
2017-10-21T13:10:04.532Z,121
2017-10-21T13:11:04.539Z,122
2017-10-21T13:12:04.552Z,98
2017-10-21T13:13:04.553Z,101
2017-10-21T13:14:04.553Z,104
2017-10-21T13:15:04.578Z,92
2017-10-21T13:16:04.577Z,104
2017-10-21T13:17:04.529Z,104
2017-10-21T13:18:04.515Z,107
2017-10-21T13:19:04.615Z,103
2017-10-21T13:20:04.568Z,102
2017-10-21T13:21:04.539Z,92
2017-10-21T13:22:04.561Z,99
2017-10-21T13:23:04.581Z,97
2017-10-21T13:24:04.543Z,100
2017-10-21T13:25:04.542Z,105
2017-10-21T13:26:04.530Z,110
2017-10-21T13:27:04.587Z,117
2017-10-21T13:28:04.622Z,127
2017-10-21T13:29:04.550Z,134
2017-10-21T13:30:04.623Z,135
2017-10-21T13:31:04.552Z,130
2017-10-21T13:32:04.623Z,116
2017-10-21T13:33:04.624Z,110
2017-10-21T13:34:04.554Z,98
2017-10-21T13:35:04.626Z,89
2017-10-21T13:36:04.557Z,85
2017-10-21T13:37:04.634Z,85
2017-10-21T13:38:04.588Z,91
2017-10-21T13:39:04.493Z,97
2017-10-21T13:40:04.512Z,94
2017-10-21T13:41:04.611Z,87
2017-10-21T13:42:04.506Z,80
2017-10-21T13:43:04.486Z,77
2017-10-21T13:44:04.486Z,79
2017-10-21T13:45:04.533Z,89
2017-10-21T13:46:04.521Z,101
2017-10-21T13:47:04.598Z,119
2017-10-21T13:48:04.533Z,122
2017-10-21T13:49:04.652Z,111
2017-10-21T13:50:04.557Z,113
2017-10-21T13:51:04.634Z,117
2017-10-21T13:52:04.603Z,118
2017-10-21T13:53:04.601Z,113
2017-10-21T13:54:04.565Z,104
2017-10-21T13:55:04.536Z,105
2017-10-21T13:56:04.626Z,101
2017-10-21T13:57:04.542Z,95
2017-10-21T13:58:04.539Z,91
2017-10-21T13:59:04.600Z,91
2017-10-21T14:00:04.600Z,89
2017-10-21T14:01:04.544Z,86
2017-10-21T14:02:04.499Z,80
2017-10-21T14:03:04.604Z,80
2017-10-21T14:04:04.607Z,81
2017-10-21T14:05:04.512Z,81
2017-10-21T14:06:04.611Z,81
2017-10-21T14:07:04.514Z,73
2017-10-21T14:08:04.529Z,68
2017-10-21T14:09:04.502Z,61
2017-10-21T14:10:04.532Z,56
2017-10-21T14:11:04.610Z,55
2017-10-21T14:12:04.554Z,55
2017-10-21T14:13:04.552Z,52
2017-10-21T14:14:04.528Z,56
2017-10-21T14:15:04.576Z,62
2017-10-21T14:16:04.556Z,65
2017-10-21T14:17:04.557Z,67
2017-10-21T14:18:04.579Z,72
2017-10-21T14:19:04.655Z,69
2017-10-21T14:20:04.650Z,65
2017-10-21T14:21:04.577Z,62
2017-10-21T14:22:04.654Z,56